createdAt,value
2019-03-22T00:00:16.326Z,94.40
2019-03-22T00:02:44.788Z,94.30
2019-03-22T00:05:13.214Z,93.80
2019-03-22T00:07:41.643Z,93.90
2019-03-22T00:10:10.147Z,93.80
2019-03-22T00:12:41.572Z,94.30
2019-03-22T00:15:10.773Z,94.50
2019-03-22T00:17:39.225Z,94.60
2019-03-22T00:20:08.808Z,94.30
2019-03-22T00:22:37.281Z,93.70
2019-03-22T00:25:06.374Z,93.70
2019-03-22T00:27:34.843Z,94.10
2019-03-22T00:30:04.873Z,94.40
2019-03-22T00:32:33.341Z,93.70
2019-03-22T00:35:01.803Z,93.80
2019-03-22T00:37:30.278Z,93.90
2019-03-22T00:39:58.748Z,94.20
2019-03-22T00:42:27.200Z,93.80
2019-03-22T00:44:55.644Z,94.50
2019-03-22T00:47:24.069Z,94.30
2019-03-22T00:49:52.582Z,93.90
2019-03-22T00:52:22.269Z,94.10
2019-03-22T00:54:50.722Z,94.20
2019-03-22T00:57:27.945Z,94.40
2019-03-22T00:59:49.306Z,94.30
2019-03-22T01:02:17.820Z,94.30
2019-03-22T01:04:46.263Z,94.20
2019-03-22T01:07:14.750Z,94.30
2019-03-22T01:09:44.377Z,94.20
2019-03-22T01:12:12.898Z,94.30
2019-03-22T01:14:41.349Z,94.50
2019-03-22T01:17:10.426Z,94.60
2019-03-22T01:19:38.869Z,94.60
2019-03-22T01:22:07.324Z,94.70
2019-03-22T01:24:35.762Z,94.40
2019-03-22T01:27:04.214Z,94.10
2019-03-22T01:29:32.663Z,94.20
2019-03-22T01:32:01.098Z,94.40
2019-03-22T01:34:31.488Z,94.20
2019-03-22T01:36:59.922Z,94.50
2019-03-22T01:39:28.376Z,94.30
2019-03-22T01:41:56.845Z,94.20
2019-03-22T01:44:25.290Z,94.10
2019-03-22T01:46:53.740Z,94.30
2019-03-22T01:49:24.241Z,94.10
2019-03-22T01:51:52.675Z,94.40
2019-03-22T01:54:21.113Z,94.40
2019-03-22T01:56:49.562Z,94.40
2019-03-22T01:59:17.990Z,94.50
2019-03-22T02:01:46.448Z,94.60
2019-03-22T02:04:14.877Z,94.70
2019-03-22T02:06:43.322Z,94.90
2019-03-22T02:09:11.776Z,95.20
2019-03-22T02:11:40.202Z,95.20
2019-03-22T02:14:08.715Z,95.20
2019-03-22T02:16:37.290Z,95.00
2019-03-22T02:19:05.730Z,95.00
2019-03-22T02:21:35.027Z,95.10
2019-03-22T02:24:03.469Z,95.20
2019-03-22T02:26:31.903Z,95.10
2019-03-22T02:29:00.361Z,95.10
2019-03-22T02:31:28.951Z,95.40
2019-03-22T02:33:57.448Z,95.00
2019-03-22T02:36:25.910Z,94.80
2019-03-22T02:38:54.357Z,95.20
2019-03-22T02:41:22.871Z,95.30
2019-03-22T02:43:54.437Z,95.30
2019-03-22T02:46:21.499Z,95.20
2019-03-22T02:49:00.047Z,95.20
2019-03-22T02:51:28.509Z,95.10
2019-03-22T02:53:56.977Z,95.00
2019-03-22T02:56:25.407Z,94.70
2019-03-22T02:58:53.840Z,94.80
2019-03-22T03:01:22.339Z,94.80
2019-03-22T03:03:50.792Z,94.60
2019-03-22T03:06:20.579Z,94.50
2019-03-22T03:08:49.026Z,94.70
2019-03-22T03:11:17.473Z,94.60
2019-03-22T03:13:45.914Z,94.40
2019-03-22T03:16:14.389Z,94.30
2019-03-22T03:18:42.920Z,93.80
2019-03-22T03:21:11.365Z,93.90
2019-03-22T03:23:39.821Z,94.40
2019-03-22T03:26:08.268Z,94.60
2019-03-22T03:28:37.704Z,94.60
2019-03-22T03:31:06.382Z,94.50
2019-03-22T03:33:34.895Z,94.30
2019-03-22T03:36:03.342Z,94.10
2019-03-22T03:38:31.887Z,94.20
2019-03-22T03:41:00.698Z,94.10
2019-03-22T03:43:29.278Z,94.00
2019-03-22T03:45:58.774Z,93.70
2019-03-22T03:48:27.248Z,93.50
2019-03-22T03:50:55.672Z,93.70
2019-03-22T03:53:24.116Z,93.80
2019-03-22T03:55:52.563Z,93.60
2019-03-22T03:58:20.988Z,93.40
2019-03-22T04:00:49.483Z,93.60
2019-03-22T04:03:17.989Z,93.90
2019-03-22T04:05:47.413Z,93.60
2019-03-22T04:08:15.860Z,93.50
2019-03-22T04:10:44.359Z,93.70
2019-03-22T04:13:12.829Z,93.60
2019-03-22T04:15:43.190Z,93.90
2019-03-22T04:18:11.639Z,93.90
2019-03-22T04:20:40.102Z,93.80
2019-03-22T04:23:08.555Z,93.80
2019-03-22T04:25:38.192Z,93.60
2019-03-22T04:28:06.647Z,93.60
2019-03-22T04:30:35.121Z,93.10
2019-03-22T04:33:06.394Z,93.50
2019-03-22T04:35:33.873Z,93.70
2019-03-22T04:38:02.389Z,93.70
2019-03-22T04:40:30.962Z,93.40
2019-03-22T04:42:59.417Z,93.60
2019-03-22T04:45:30.913Z,93.70
2019-03-22T04:48:08.122Z,93.70
2019-03-22T04:50:39.639Z,93.60
2019-03-22T04:53:11.008Z,93.40
2019-03-22T04:55:41.462Z,93.80
2019-03-22T04:58:11.674Z,93.80
2019-03-22T05:00:40.950Z,93.80
2019-03-22T05:03:10.649Z,93.00
2019-03-22T05:05:39.414Z,93.10
2019-03-22T05:08:08.554Z,93.50
2019-03-22T05:10:38.323Z,93.60
2019-03-22T05:13:10.011Z,93.60
2019-03-22T05:15:39.038Z,93.70
2019-03-22T05:18:07.924Z,93.70
2019-03-22T05:20:37.817Z,93.80
2019-03-22T05:23:08.547Z,93.80
2019-03-22T05:25:37.730Z,93.80
2019-03-22T05:28:08.127Z,93.80
2019-03-22T05:30:51.455Z,93.90
2019-03-22T05:33:19.913Z,93.50
2019-03-22T05:35:48.479Z,93.80
2019-03-22T05:38:16.963Z,93.70
2019-03-22T05:40:45.394Z,93.60
2019-03-22T05:43:13.868Z,93.40
2019-03-22T05:45:42.386Z,93.30
2019-03-22T05:48:10.829Z,93.40
2019-03-22T05:50:39.284Z,93.70
2019-03-22T05:53:07.702Z,93.70
2019-03-22T05:55:36.145Z,93.70
2019-03-22T05:58:04.652Z,93.50
2019-03-22T06:00:33.098Z,93.30
2019-03-22T06:03:01.522Z,93.50
2019-03-22T06:05:29.979Z,93.60
2019-03-22T06:07:58.410Z,93.20
2019-03-22T06:10:26.873Z,93.50
2019-03-22T06:12:55.328Z,93.70
2019-03-22T06:15:23.783Z,93.70
2019-03-22T06:17:52.375Z,93.90
2019-03-22T06:20:20.804Z,93.90
2019-03-22T06:22:49.270Z,93.80
2019-03-22T06:25:17.731Z,93.80
2019-03-22T06:27:46.260Z,93.60
2019-03-22T06:30:14.787Z,93.70
2019-03-22T06:32:43.252Z,93.70
2019-03-22T06:35:11.698Z,93.60
2019-03-22T06:37:40.165Z,93.60
2019-03-22T06:40:08.753Z,93.70
2019-03-22T06:42:37.215Z,93.60
2019-03-22T06:45:07.419Z,93.70
2019-03-22T06:47:35.858Z,93.80
2019-03-22T06:50:08.503Z,93.70
2019-03-22T06:52:37.049Z,93.60
2019-03-22T06:55:07.084Z,93.60
2019-03-22T06:57:35.529Z,93.50
2019-03-22T07:00:09.487Z,93.40
2019-03-22T07:02:38.082Z,93.50
2019-03-22T07:05:06.966Z,93.50
2019-03-22T07:07:35.393Z,93.30
2019-03-22T07:10:05.801Z,93.10
2019-03-22T07:12:34.245Z,93.10
2019-03-22T07:15:02.710Z,93.30
2019-03-22T07:17:31.164Z,92.60
2019-03-22T07:19:59.607Z,93.00
2019-03-22T07:22:28.041Z,93.30
2019-03-22T07:24:56.482Z,93.40
2019-03-22T07:27:24.919Z,93.30
2019-03-22T07:29:53.381Z,93.30
2019-03-22T07:32:21.826Z,93.30
2019-03-22T07:34:50.272Z,93.30
2019-03-22T07:37:18.771Z,93.20
2019-03-22T07:39:47.216Z,93.10
2019-03-22T07:42:17.584Z,93.10
2019-03-22T07:44:45.911Z,92.70
2019-03-22T07:47:14.354Z,92.80
2019-03-22T07:49:42.793Z,92.90
2019-03-22T07:52:11.243Z,93.00
2019-03-22T07:54:39.743Z,92.90
2019-03-22T07:57:08.183Z,92.90
2019-03-22T07:59:36.639Z,93.10
2019-03-22T08:02:05.236Z,93.20
2019-03-22T08:04:33.684Z,93.00
2019-03-22T08:07:02.130Z,92.90
2019-03-22T08:09:30.563Z,93.00
2019-03-22T08:11:59.598Z,92.80
2019-03-22T08:14:28.069Z,92.60
2019-03-22T08:16:56.560Z,92.30
2019-03-22T08:19:25.012Z,92.50
2019-03-22T08:21:53.435Z,92.20
2019-03-22T08:24:21.877Z,92.20
2019-03-22T08:26:50.341Z,92.00
2019-03-22T08:29:18.854Z,91.80
2019-03-22T08:31:47.385Z,92.00
2019-03-22T08:34:15.900Z,92.00
2019-03-22T08:36:44.352Z,91.80
2019-03-22T08:39:12.835Z,92.10
2019-03-22T08:41:41.348Z,91.80
2019-03-22T08:44:09.788Z,92.00
2019-03-22T08:46:38.254Z,92.00
2019-03-22T08:49:09.340Z,92.00
2019-03-22T08:51:36.959Z,92.10
2019-03-22T08:54:05.554Z,91.30
2019-03-22T08:56:36.025Z,91.50
2019-03-22T08:59:04.581Z,91.30
2019-03-22T09:01:33.065Z,91.30
2019-03-22T09:04:01.551Z,91.30
2019-03-22T09:06:30.068Z,91.40
2019-03-22T09:08:58.630Z,91.30
2019-03-22T09:11:27.133Z,91.60
2019-03-22T09:13:55.608Z,91.60
2019-03-22T09:16:24.150Z,91.40
2019-03-22T09:18:52.634Z,91.80
2019-03-22T09:21:21.092Z,90.90
2019-03-22T09:23:49.556Z,90.70
2019-03-22T09:26:19.971Z,90.70
2019-03-22T09:28:48.301Z,91.00
2019-03-22T09:31:16.819Z,90.80
2019-03-22T09:33:45.301Z,90.90
2019-03-22T09:36:13.761Z,90.90
2019-03-22T09:38:42.246Z,90.90
2019-03-22T09:41:10.737Z,91.10
2019-03-22T09:43:39.178Z,90.50
2019-03-22T09:46:07.640Z,90.50
2019-03-22T09:48:36.146Z,90.50
2019-03-22T09:51:04.706Z,90.70
2019-03-22T09:53:33.221Z,91.20
2019-03-22T09:56:01.770Z,90.50
2019-03-22T09:58:30.355Z,90.20
2019-03-22T10:00:58.917Z,89.80
2019-03-22T10:03:27.413Z,90.30
2019-03-22T10:05:55.926Z,90.50
2019-03-22T10:08:24.384Z,90.20
2019-03-22T10:10:52.876Z,90.10
2019-03-22T10:13:21.359Z,90.40
2019-03-22T10:15:49.971Z,90.40
2019-03-22T10:18:18.435Z,90.20
2019-03-22T10:20:46.894Z,90.30
2019-03-22T10:23:15.431Z,89.70
2019-03-22T10:25:43.911Z,90.00
2019-03-22T10:28:12.440Z,90.20
2019-03-22T10:30:40.942Z,89.70
2019-03-22T10:33:21.823Z,89.60
2019-03-22T10:35:39.588Z,89.60
2019-03-22T10:38:15.949Z,89.30
2019-03-22T10:40:38.344Z,89.70
2019-03-22T10:43:06.804Z,89.40
2019-03-22T10:45:35.361Z,88.40
2019-03-22T10:48:03.983Z,89.10
2019-03-22T10:50:32.444Z,88.50
2019-03-22T10:53:00.942Z,87.80
2019-03-22T10:55:30.668Z,88.40
2019-03-22T10:57:59.525Z,88.20
2019-03-22T11:00:28.060Z,88.00
2019-03-22T11:02:56.495Z,88.00
2019-03-22T11:05:25.064Z,87.80
2019-03-22T11:07:53.527Z,88.20
2019-03-22T11:10:21.971Z,88.00
2019-03-22T11:12:50.501Z,88.20
2019-03-22T11:15:18.939Z,88.50
2019-03-22T11:17:47.387Z,87.20
2019-03-22T11:20:17.154Z,88.40
2019-03-22T11:22:45.597Z,87.30
2019-03-22T11:25:14.174Z,87.70
2019-03-22T11:27:42.619Z,86.70
2019-03-22T11:30:16.805Z,86.60
2019-03-22T11:32:45.549Z,87.40
2019-03-22T11:35:14.437Z,87.10
2019-03-22T11:37:42.877Z,86.80
2019-03-22T11:40:16.012Z,86.10
2019-03-22T11:42:44.614Z,85.20
2019-03-22T11:45:16.393Z,85.50
2019-03-22T11:47:44.826Z,85.40
2019-03-22T11:50:13.632Z,84.60
2019-03-22T11:52:42.082Z,84.90
2019-03-22T11:55:12.599Z,84.90
2019-03-22T11:57:41.117Z,84.20
2019-03-22T12:00:15.765Z,83.20
2019-03-22T12:02:44.187Z,82.90
2019-03-22T12:05:14.083Z,82.20
2019-03-22T12:07:42.659Z,82.80
2019-03-22T12:10:13.675Z,81.80
2019-03-22T12:12:42.190Z,82.30
2019-03-22T12:15:13.178Z,82.90
2019-03-22T12:17:41.746Z,81.20
2019-03-22T12:20:13.412Z,80.80
2019-03-22T12:22:41.858Z,79.90
2019-03-22T12:25:13.044Z,80.40
2019-03-22T12:27:41.492Z,79.90
2019-03-22T12:30:12.703Z,79.60
2019-03-22T12:32:41.190Z,78.80
2019-03-22T12:35:10.638Z,77.20
2019-03-22T12:37:39.490Z,77.30
2019-03-22T12:40:14.199Z,78.40
2019-03-22T12:42:42.626Z,77.40
2019-03-22T12:45:14.173Z,77.20
2019-03-22T12:47:42.697Z,77.10
2019-03-22T12:50:13.780Z,75.50
2019-03-22T12:52:42.241Z,76.60
2019-03-22T12:55:11.810Z,76.80
2019-03-22T12:57:40.271Z,75.70
2019-03-22T13:00:11.810Z,74.90
2019-03-22T13:02:42.452Z,74.30
2019-03-22T13:05:11.377Z,71.50
2019-03-22T13:07:39.809Z,73.50
2019-03-22T13:10:10.792Z,73.80
2019-03-22T13:12:39.246Z,73.70
2019-03-22T13:15:08.530Z,72.60
2019-03-22T13:17:36.972Z,73.00
2019-03-22T13:20:11.343Z,72.90
2019-03-22T13:22:39.790Z,71.80
2019-03-22T13:25:10.558Z,71.70
2019-03-22T13:27:39.072Z,70.70
2019-03-22T13:30:28.828Z,69.20
2019-03-22T13:32:58.493Z,68.80
2019-03-22T13:35:26.998Z,69.50
2019-03-22T13:37:55.451Z,69.50
2019-03-22T13:40:23.954Z,70.70
2019-03-22T13:42:52.406Z,68.50
2019-03-22T13:45:20.916Z,66.30
2019-03-22T13:47:49.346Z,69.00
2019-03-22T13:50:17.952Z,67.70
2019-03-22T13:52:46.451Z,67.50
2019-03-22T13:55:14.996Z,65.90
2019-03-22T13:57:43.419Z,66.80
2019-03-22T14:00:17.366Z,65.50
2019-03-22T14:02:45.828Z,64.40
2019-03-22T14:05:14.425Z,63.70
2019-03-22T14:07:42.871Z,64.20
2019-03-22T14:10:19.956Z,66.50
2019-03-22T14:12:48.406Z,65.00
2019-03-22T14:15:16.853Z,64.90
2019-03-22T14:17:45.307Z,63.60
2019-03-22T14:20:13.799Z,64.70
2019-03-22T14:22:42.265Z,63.10
2019-03-22T14:25:10.857Z,61.00
2019-03-22T14:27:39.418Z,64.10
2019-03-22T14:30:08.602Z,62.90
2019-03-22T14:32:37.331Z,63.10
2019-03-22T14:35:07.518Z,64.90
2019-03-22T14:37:36.029Z,62.90
2019-03-22T14:40:06.003Z,60.00
2019-03-22T14:42:34.435Z,61.80
2019-03-22T14:45:05.118Z,63.60
2019-03-22T14:47:33.546Z,61.30
2019-03-22T14:50:01.986Z,61.50
2019-03-22T14:52:38.447Z,60.10
2019-03-22T14:55:07.558Z,62.70
2019-03-22T14:57:36.030Z,62.20
2019-03-22T15:00:06.772Z,59.50
2019-03-22T15:02:35.213Z,59.30
2019-03-22T15:05:04.723Z,60.00
2019-03-22T15:07:33.241Z,60.60
2019-03-22T15:10:01.751Z,61.80
2019-03-22T15:12:30.196Z,59.00
2019-03-22T15:15:12.376Z,60.10
2019-03-22T15:17:54.507Z,60.00
2019-03-22T15:20:24.608Z,59.90
2019-03-22T15:23:06.711Z,59.60
2019-03-22T15:25:53.006Z,58.80
2019-03-22T15:28:25.813Z,59.70
2019-03-22T15:30:58.328Z,61.30
2019-03-22T15:33:44.721Z,59.50
2019-03-22T15:36:30.886Z,59.40
2019-03-22T15:39:01.100Z,59.80
2019-03-22T15:41:29.667Z,59.70
2019-03-22T15:43:58.134Z,59.10
2019-03-22T15:46:26.630Z,58.50
2019-03-22T15:48:55.134Z,58.70
2019-03-22T15:51:23.593Z,58.10
2019-03-22T15:53:52.040Z,58.50
2019-03-22T15:56:20.480Z,56.70
2019-03-22T15:58:48.942Z,58.30
2019-03-22T16:01:17.394Z,58.90
2019-03-22T16:03:45.814Z,60.40
2019-03-22T16:06:14.272Z,58.40
2019-03-22T16:08:42.717Z,57.80
2019-03-22T16:11:11.162Z,59.80
2019-03-22T16:13:39.617Z,58.80
2019-03-22T16:16:08.060Z,57.20
2019-03-22T16:18:36.566Z,59.10
2019-03-22T16:21:04.997Z,59.30
2019-03-22T16:23:33.457Z,60.10
2019-03-22T16:26:01.888Z,59.20
2019-03-22T16:28:30.340Z,58.90
2019-03-22T16:30:58.766Z,57.20
2019-03-22T16:33:27.214Z,56.90
2019-03-22T16:35:55.664Z,58.30
2019-03-22T16:38:24.189Z,57.10
2019-03-22T16:40:52.618Z,59.10
2019-03-22T16:43:21.070Z,60.00
2019-03-22T16:45:49.504Z,59.80
2019-03-22T16:48:17.964Z,60.70
2019-03-22T16:50:46.500Z,59.80
2019-03-22T16:53:14.929Z,59.20
2019-03-22T16:55:43.385Z,60.00
2019-03-22T16:58:11.838Z,62.30
2019-03-22T17:00:40.461Z,62.20
2019-03-22T17:03:09.129Z,64.00
2019-03-22T17:05:37.818Z,62.60
2019-03-22T17:08:06.282Z,64.60
2019-03-22T17:10:34.942Z,65.20
2019-03-22T17:13:03.408Z,67.70
2019-03-22T17:15:31.834Z,67.20
2019-03-22T17:18:00.264Z,66.70
2019-03-22T17:20:28.702Z,69.70
2019-03-22T17:22:57.204Z,67.00
2019-03-22T17:25:25.665Z,69.60
2019-03-22T17:27:54.114Z,68.80
2019-03-22T17:30:22.641Z,69.20
2019-03-22T17:32:51.135Z,69.90
2019-03-22T17:35:19.584Z,71.20
2019-03-22T17:37:48.013Z,71.90
2019-03-22T17:40:16.442Z,71.10
2019-03-22T17:42:44.890Z,68.50
2019-03-22T17:45:16.352Z,73.30
2019-03-22T17:47:44.866Z,74.40
2019-03-22T17:50:14.237Z,72.20
2019-03-22T17:52:42.704Z,72.20
2019-03-22T17:55:11.762Z,73.80
2019-03-22T17:57:40.204Z,73.90
2019-03-22T18:00:18.338Z,73.40
2019-03-22T18:02:46.779Z,74.40
2019-03-22T18:05:15.370Z,74.70
2019-03-22T18:07:43.804Z,75.60
2019-03-22T18:10:12.901Z,75.40
2019-03-22T18:12:41.353Z,74.20
2019-03-22T18:15:12.029Z,75.20
2019-03-22T18:17:40.464Z,74.30
2019-03-22T18:20:14.699Z,75.10
2019-03-22T18:22:43.125Z,76.10
2019-03-22T18:25:12.222Z,74.40
2019-03-22T18:27:40.667Z,73.60
2019-03-22T18:30:11.557Z,73.80
2019-03-22T18:32:40.029Z,75.70
2019-03-22T18:35:08.932Z,76.00
2019-03-22T18:37:37.384Z,74.70
2019-03-22T18:40:08.813Z,75.60
2019-03-22T18:42:37.277Z,75.40
2019-03-22T18:45:07.850Z,74.20
2019-03-22T18:47:36.313Z,74.30
2019-03-22T18:50:07.829Z,76.40
2019-03-22T18:52:36.284Z,74.70
2019-03-22T18:55:06.464Z,74.80
2019-03-22T19:00:18.059Z,76.00
2019-03-22T19:02:46.488Z,76.20
2019-03-22T19:05:18.030Z,76.50
2019-03-22T19:07:46.489Z,77.70
2019-03-22T19:10:15.790Z,74.90
2019-03-22T19:12:53.897Z,75.80
2019-03-22T19:15:22.337Z,76.00
2019-03-22T19:17:50.784Z,77.70
2019-03-22T19:20:41.261Z,78.00
2019-03-22T19:23:09.697Z,77.30
2019-03-22T19:25:38.241Z,77.50
2019-03-22T19:28:06.666Z,77.40
2019-03-22T19:30:35.101Z,78.00
2019-03-22T19:33:03.551Z,76.90
2019-03-22T19:35:32.038Z,77.20
2019-03-22T19:38:00.490Z,77.70
2019-03-22T19:40:28.941Z,76.40
2019-03-22T19:42:57.400Z,77.80
2019-03-22T19:45:25.902Z,74.20
2019-03-22T19:47:54.365Z,76.10
2019-03-22T19:50:22.813Z,74.30
2019-03-22T19:52:51.253Z,77.30
2019-03-22T19:55:19.700Z,76.70
2019-03-22T19:57:48.145Z,75.50
2019-03-22T20:00:18.238Z,77.70
2019-03-22T20:02:49.265Z,77.30
2019-03-22T20:05:31.566Z,78.10
2019-03-22T20:08:00.655Z,78.30
2019-03-22T20:10:29.181Z,78.30
2019-03-22T20:12:57.708Z,78.30
2019-03-22T20:15:26.161Z,78.90
2019-03-22T20:17:54.601Z,78.50
2019-03-22T20:20:23.107Z,78.30
2019-03-22T20:22:51.565Z,76.60
2019-03-22T20:25:20.017Z,80.00
2019-03-22T20:27:48.515Z,81.10
2019-03-22T20:30:18.330Z,79.70
2019-03-22T20:32:46.754Z,77.10
2019-03-22T20:35:16.959Z,79.90
2019-03-22T20:37:45.509Z,79.10
2019-03-22T20:40:18.185Z,80.20
2019-03-22T20:42:46.984Z,78.30
2019-03-22T20:45:23.695Z,77.10
2019-03-22T20:47:45.825Z,78.20
2019-03-22T20:50:14.581Z,77.80
2019-03-22T20:52:43.031Z,77.80
2019-03-22T20:55:11.621Z,79.40
2019-03-22T20:57:40.053Z,80.80
2019-03-22T21:00:11.002Z,78.30
2019-03-22T21:02:39.455Z,80.40
2019-03-22T21:05:25.912Z,78.40
2019-03-22T21:07:45.358Z,79.90
2019-03-22T21:10:13.897Z,78.80
2019-03-22T21:12:42.332Z,81.80
2019-03-22T21:15:12.446Z,80.00
2019-03-22T21:17:40.916Z,79.70
2019-03-22T21:20:10.390Z,80.40
2019-03-22T21:22:38.920Z,78.50
2019-03-22T21:25:08.901Z,80.30
2019-03-22T21:27:38.336Z,79.60
2019-03-22T21:30:14.608Z,80.30
2019-03-22T21:32:45.848Z,79.70
2019-03-22T21:35:22.565Z,79.70
2019-03-22T21:37:44.786Z,81.20
2019-03-22T21:40:13.318Z,80.50
2019-03-22T21:42:41.772Z,80.70
2019-03-22T21:45:10.911Z,81.20
2019-03-22T21:47:39.349Z,79.30
2019-03-22T21:50:09.363Z,80.00
2019-03-22T21:52:37.862Z,81.10
2019-03-22T21:55:08.032Z,81.20
2019-03-22T21:57:36.480Z,79.70
2019-03-22T22:00:07.166Z,81.00
2019-03-22T22:02:35.629Z,80.90
2019-03-22T22:05:05.715Z,81.30
2019-03-22T22:07:34.167Z,82.00
2019-03-22T22:10:02.996Z,81.10
2019-03-22T22:12:31.426Z,81.50
2019-03-22T22:14:59.867Z,82.80
2019-03-22T22:17:28.338Z,82.50
2019-03-22T22:19:56.771Z,81.80
2019-03-22T22:22:25.218Z,82.10
2019-03-22T22:24:53.765Z,81.70
2019-03-22T22:27:22.282Z,81.10
2019-03-22T22:29:50.743Z,82.80
2019-03-22T22:32:19.209Z,82.60
2019-03-22T22:34:47.661Z,82.70
2019-03-22T22:37:16.102Z,83.00
2019-03-22T22:39:44.565Z,83.00
2019-03-22T22:42:13.017Z,83.20
2019-03-22T22:44:41.438Z,82.70
2019-03-22T22:47:09.883Z,82.40
2019-03-22T22:49:38.342Z,83.00
2019-03-22T22:52:06.794Z,82.40
2019-03-22T22:54:35.255Z,82.90
2019-03-22T22:57:03.697Z,82.70
2019-03-22T22:59:32.156Z,82.20
2019-03-22T23:02:00.585Z,83.10
2019-03-22T23:04:29.037Z,83.80
2019-03-22T23:06:57.496Z,83.10
2019-03-22T23:09:26.294Z,84.00
2019-03-22T23:11:54.758Z,83.70
2019-03-22T23:14:23.200Z,84.10
2019-03-22T23:16:51.646Z,84.60
2019-03-22T23:19:20.088Z,84.50
2019-03-22T23:21:48.526Z,84.10
2019-03-22T23:24:17.117Z,85.00
2019-03-22T23:26:45.558Z,85.10
2019-03-22T23:29:13.990Z,85.50
2019-03-22T23:31:42.456Z,85.10
2019-03-22T23:34:10.907Z,84.40
2019-03-22T23:36:39.364Z,85.20
2019-03-22T23:39:08.277Z,85.00
2019-03-22T23:41:36.715Z,85.30
2019-03-22T23:44:05.164Z,84.70
2019-03-22T23:46:33.604Z,84.70
2019-03-22T23:49:02.076Z,84.70
2019-03-22T23:51:30.572Z,85.10
2019-03-22T23:53:58.997Z,84.50
2019-03-22T23:56:27.456Z,85.10
2019-03-22T23:58:55.895Z,84.80
